• Join FlightAware (Why Join?)
  • Login
  • US Flag 
10:59PM EDT


 

Airport Tracker/Info


-or-


 

Live Flight TrackerFlight Track Log ✈ DAL3698 ✈ 16-Apr-2013 ✈ KLAN - KMSP

Flight Track Log - Related Links

Times and Time Zones

All times are in EDT time to prevent confusion due to time zone crossing. See the DAL3698 flight status page for this flight to view local times or setup timezone preferences in your user account.

Time Position Orientation Groundspeed Altitude Reporting Facility
EDT Latitude Longitude Course Direction KTS MPH feet Rate Location/Type
07:41AM 42.7761 -84.7050 278° West 191 220 4,500  Level Cleveland Center
07:42AM 42.7775 -84.7983 271° West 223 257 7,200 2,340 Climbing Chicago Center
07:43AM 42.7366 -85.0195 283° West  Level FlightAware Approximate
07:43AM 42.7797 -84.8875 272° West 234 269 9,700  Level Chicago Center
07:44AM 42.7525 -85.1325 276° West  Level FlightAware Approximate
07:44AM 42.7803 -84.9786 271° West 240 276 11,200  Level Chicago Center
07:45AM 42.7614 -85.2472 276° West  Level FlightAware Approximate
07:45AM 42.7814 -85.0858 271° West 278 320 12,700  Level Chicago Center
07:46AM 42.7707 -85.3563 278° West  Level FlightAware Approximate
07:46AM 42.7828 -85.1969 271° West 293 337 14,000  Level Chicago Center
07:47AM 42.7922 -85.3136 276° West 308 354 15,400 1,380 Climbing Chicago Center
07:48AM 42.8067 -85.4297 280° West 311 358 16,900 1,320 Climbing Chicago Center
07:49AM 42.8233 -85.5708 279° West 316 364 18,200 1,140 Climbing Chicago Center
07:50AM 42.8381 -85.6903 280° West 319 367 19,300 1,020 Climbing Chicago Center
07:51AM 42.8525 -85.8133 279° West 326 375 20,300 960 Climbing Chicago Center
07:52AM 42.8669 -85.9372 279° West 329 379 21,300 960 Climbing Chicago Center
07:53AM 42.8803 -86.0622 278° West 328 377 22,300 960 Climbing Chicago Center
07:54AM 42.8958 -86.1861 280° West 325 374 23,300 960 Climbing Chicago Center
07:55AM 42.9094 -86.3086 279° West 325 374 24,300 960 Climbing Chicago Center
07:56AM 42.9236 -86.4272 279° West 319 367 25,300 960 Climbing Chicago Center
07:57AM 42.9367 -86.5444 279° West 313 360 26,400 1,020 Climbing Chicago Center
07:58AM 42.9497 -86.6606 279° West 310 357 27,400 780 Climbing Chicago Center
07:59AM 42.9608 -86.7742 278° West 302 348 28,000 240 Climbing Chicago Center
08:00AM 42.9767 -86.9181 279° West 318 366 28,000  Level Chicago Center
08:01AM 42.9897 -87.0433 278° West 334 384 28,000  Level Chicago Center
08:02AM 43.0039 -87.1736 279° West 346 398 28,000  Level Chicago Center
08:03AM 43.0189 -87.3061 279° West 354 407 28,000  Level Chicago Center
08:04AM 43.0331 -87.4389 278° West 351 404 28,000  Level Chicago Center
08:05AM 43.0814 -87.5583 299° West 359 413 28,000  Level Chicago Center
08:06AM 43.1417 -87.6947 301° West 359 413 28,000  Level Chicago Center
08:07AM 43.1919 -87.8136 300° West 360 414 28,000  Level Chicago Center
08:08AM 43.2422 -87.9306 301° West 357 411 28,000  Level Chicago Center
08:09AM 43.2914 -88.0472 300° West 357 411 28,000  Level Chicago Center
08:11AM 43.3414 -88.1642 300° West 356 410 28,000  Level Chicago Center
08:12AM 43.3903 -88.2803 300° West 353 406 28,000  Level Chicago Center
08:13AM 43.4397 -88.4006 300° West 359 413 28,000  Level Chicago Center
08:14AM 43.4950 -88.5264 301° West 366 421 28,000  Level Chicago Center
08:15AM 43.5453 -88.6528 299° West 361 415 28,000  Level Chicago Center
08:16AM 43.5953 -88.7739 300° West 363 418 28,000  Level Chicago Center
08:17AM 43.6450 -88.8936 300° West 363 418 28,000  Level Minneapolis Center
08:18AM 43.6942 -89.0119 300° West 358 412 28,000  Level Minneapolis Center
08:19AM 43.7428 -89.1325 299° West 359 413 28,000  Level Minneapolis Center
08:20AM 43.7903 -89.2531 299° West 358 412 28,000  Level Minneapolis Center
08:21AM 43.8306 -89.3506 300° West 353 406 28,000  Level Minneapolis Center
08:22AM 43.8858 -89.4881 299° West 351 404 28,000  Level Minneapolis Center
08:23AM 43.9333 -89.6064 299° West 351 404 28,000  Level Minneapolis Center
08:24AM 43.9811 -89.7250 299° West 351 404 28,000  Level Minneapolis Center
08:25AM 44.0353 -89.8619 299° West 348 400 28,000  Level Minneapolis Center
08:26AM 44.0842 -89.9781 300° West 348 400 28,000  Level Minneapolis Center
08:27AM 44.1456 -90.0881 308° West 359 413 28,000  Level Minneapolis Center
08:28AM 44.2056 -90.1964 308° West 354 407 28,000  Level Minneapolis Center
08:29AM 44.2492 -90.3156 297° West 343 395 28,000  Level Minneapolis Center
08:30AM 44.2892 -90.4344 295° West 339 390 28,000  Level Minneapolis Center
08:31AM 44.3283 -90.5536 295° West 338 389 28,000  Level Minneapolis Center
08:32AM 44.3747 -90.6961 295° West 345 397 28,000 -540 Level Minneapolis Center
08:33AM 44.4147 -90.8231 294° West 355 409 26,900 -1,200 Descending Minneapolis Center
08:34AM 44.4494 -90.9344 294° West 360 414 25,600 -1,560 Descending Minneapolis Center
08:35AM 44.4964 -91.0883 293° West 361 415 23,800 -1,620 Descending Minneapolis Center
08:36AM 44.5372 -91.2164 294° West 361 415 22,300 -1,500 Descending Minneapolis Center
08:37AM 44.5783 -91.3433 294° West 360 414 20,800 -1,500 Descending Minneapolis Center
08:38AM 44.6183 -91.4661 295° West 356 410 19,300 -1,560 Descending Minneapolis Center
08:39AM 44.6561 -91.5867 294° West 324 373 17,700 -1,440 Descending Minneapolis Center
08:40AM 44.6872 -91.6839 294° West 303 349 16,400 -1,380 Descending Minneapolis Center
08:41AM 44.7219 -91.7928 294° West 305 351 14,900 -1,620 Descending Minneapolis Center
08:42AM 44.7581 -91.8792 301° West 318 366 13,800 -1,740 Descending FAA TRACON SMA TRACON (SMA)
08:42AM 44.7703 -91.9142 296° West 319 367 13,300 -1,500 Descending FAA TRACON SMA TRACON (SMA)
08:42AM 44.7792 -91.9503 289° West 319 367 12,800 -1,500 Descending FAA TRACON SMA TRACON (SMA)
08:43AM 44.7928 -91.9944 293° West 321 369 12,300 -1,500 Descending FAA TRACON SMA TRACON (SMA)
08:43AM 44.8019 -92.0297 290° West 319 367 11,800 -1,500 Descending FAA TRACON SMA TRACON (SMA)
08:43AM 44.8136 -92.0650 295° West 319 367 11,300 -1,680 Descending FAA TRACON SMA TRACON (SMA)
08:44AM 44.8253 -92.1075 291° West 309 356 10,700 -1,500 Descending FAA TRACON SMA TRACON (SMA)
08:44AM 44.8331 -92.1411 288° West 298 343 10,300 -1,080 Descending FAA TRACON SMA TRACON (SMA)
08:44AM 44.8431 -92.1731 294° West 295 339 10,000 -600 Descending FAA TRACON SMA TRACON (SMA)
08:45AM 44.8569 -92.2122 297° West 289 333 9,900 -180 Descending FAA TRACON SMA TRACON (SMA)
08:45AM 44.8656 -92.2450 290° West 289 333 9,900  Level FAA TRACON SMA TRACON (SMA)
08:45AM 44.8717 -92.2875 281° West 290 334 9,900  Level FAA TRACON SMA TRACON (SMA)
08:46AM 44.8656 -92.3217 256° West 293 337 9,900  Level FAA TRACON SMA TRACON (SMA)
08:46AM 44.8617 -92.3536 260° West 280 322 9,900 -180 Level FAA TRACON SMA TRACON (SMA)
08:46AM 44.8572 -92.3889 260° West 249 287 9,800 -1,200 Descending FAA TRACON SMA TRACON (SMA)
08:47AM 44.8519 -92.4161 255° West 234 269 9,100 -2,400 Descending FAA TRACON SMA TRACON (SMA)
08:47AM 44.8483 -92.4442 260° West 234 269 8,200 -2,520 Descending FAA TRACON SMA TRACON (SMA)
08:47AM 44.8431 -92.4728 255° West 240 276 7,500 -1,800 Descending FAA TRACON SMA TRACON (SMA)
08:48AM 44.8372 -92.5083 257° West 244 281 7,000 -780 Descending FAA TRACON SMA TRACON (SMA)
08:48AM 44.8339 -92.5367 261° West 241 277 7,000 -180 Level FAA TRACON SMA TRACON (SMA)
08:48AM 44.8297 -92.5653 258° West 243 280 6,900 -180 Descending FAA TRACON SMA TRACON (SMA)
08:49AM 44.8239 -92.6011 257° West 244 281 6,900  Level FAA TRACON SMA TRACON (SMA)
08:49AM 44.8203 -92.6300 260° West 244 281 6,900 -600 Level FAA TRACON SMA TRACON (SMA)
08:49AM 44.8158 -92.6583 258° West 243 280 6,500 -1,500 Descending FAA TRACON SMA TRACON (SMA)
08:50AM 44.8108 -92.6944 259° West 245 282 5,900 -1,800 Descending FAA TRACON SMA TRACON (SMA)
08:50AM 44.8067 -92.7242 259° West 247 284 5,300 -1,560 Descending FAA TRACON SMA TRACON (SMA)
08:50AM 44.8011 -92.7550 256° West 254 292 4,900 -1,440 Descending FAA TRACON SMA TRACON (SMA)
08:51AM 44.7961 -92.7911 259° West 253 291 4,400 -1,080 Descending FAA TRACON SMA TRACON (SMA)
08:51AM 44.7911 -92.8208 257° West 252 290 4,200 -600 Descending FAA TRACON SMA TRACON (SMA)
08:51AM 44.7869 -92.8494 258° West 245 282 4,000 -480 Descending FAA TRACON SMA TRACON (SMA)
08:52AM 44.7847 -92.8853 265° West 239 275 3,900 -180 Descending FAA TRACON SMA TRACON (SMA)
08:52AM 44.7881 -92.9128 280° West 236 272 3,900  Level FAA TRACON SMA TRACON (SMA)
08:52AM 44.7931 -92.9478 281° West 236 272 3,900  Level FAA TRACON SMA TRACON (SMA)
08:53AM 44.7967 -92.9756 280° West 236 272 3,900  Level FAA TRACON SMA TRACON (SMA)
08:53AM 44.8000 -93.0017 280° West 224 258 3,900  Level FAA TRACON SMA TRACON (SMA)